Time;durP1;ratioP1;P1;durP2;ratioP2;P2;SDS_P1;SDS_P2;PMS_P1;PMS_P2;Temp;Humidity;BMP_temperature;BMP_pressure;BME280_temperature;BME280_humidity;BME280_pressure;Samples;Min_cycle;Max_cycle;Signal;HPM_P1;HPM_P2
2023/09/21 00:00:17;;;;;;;;;5.33;4.00;;;;;24.03;100.00;99752.09;5051627;28;45325;-79
2023/09/21 00:02:50;;;;;;;;;3.00;3.00;;;;;24.04;100.00;99760.09;5054775;28;47376;-79
2023/09/21 00:05:21;;;;;;;;;4.00;2.00;;;;;24.01;100.00;99740.53;5049665;28;45415;-79
2023/09/21 00:07:46;;;;;;;;;4.00;2.00;;;;;23.97;100.00;99752.44;5047980;28;45454;-78
2023/09/21 00:10:12;;;;;;;;;3.00;3.00;;;;;23.96;100.00;99753.41;5047174;28;45449;-79
2023/09/21 00:12:38;;;;;;;;;3.33;2.67;;;;;23.91;100.00;99753.69;5044360;28;47197;-79
2023/09/21 00:15:06;;;;;;;;;2.33;2.33;;;;;23.89;100.00;99752.94;5041840;28;45300;-78
2023/09/21 00:17:37;;;;;;;;;2.00;2.00;;;;;23.87;100.00;99759.41;5047264;28;45326;-79
2023/09/21 00:20:21;;;;;;;;;4.00;2.00;;;;;23.87;100.00;99762.97;5044594;28;45642;-78
2023/09/21 00:22:47;;;;;;;;;2.33;2.33;;;;;23.86;100.00;99760.34;5043953;28;47487;-78
2023/09/21 00:25:15;;;;;;;;;2.00;2.00;;;;;23.84;100.00;99755.03;5044263;28;45858;-77
2023/09/21 00:27:41;;;;;;;;;3.00;3.00;;;;;23.81;100.00;99762.44;5054764;28;45343;-77
2023/09/21 00:30:06;;;;;;;;;3.33;2.33;;;;;23.76;100.00;99762.75;5053101;28;57996;-77
2023/09/21 00:32:38;;;;;;;;;2.00;2.00;;;;;23.76;100.00;99762.75;5045018;28;46275;-77
2023/09/21 00:35:06;;;;;;;;;1.67;1.00;;;;;23.74;100.00;99754.72;5046800;28;45511;-78
2023/09/21 00:37:35;;;;;;;;;3.00;3.00;;;;;23.71;100.00;99743.28;5053071;28;45283;-78
2023/09/21 00:40:10;;;;;;;;;1.67;1.67;;;;;23.67;100.00;99755.22;5043111;28;45268;-77
2023/09/21 00:42:35;;;;;;;;;2.00;2.00;;;;;23.66;100.00;99748.09;5051655;28;47562;-78
2023/09/21 00:45:01;;;;;;;;;4.00;3.00;;;;;23.62;100.00;99733.88;5044707;28;47596;-77
2023/09/21 00:47:27;;;;;;;;;4.00;3.00;;;;;23.62;100.00;99749.19;5041021;28;45322;-77
2023/09/21 00:49:53;;;;;;;;;2.00;2.00;;;;;23.61;100.00;99744.78;5045293;28;45332;-78
2023/09/21 00:52:18;;;;;;;;;4.00;2.00;;;;;23.62;100.00;99751.88;5050142;28;47291;-77
2023/09/21 00:54:43;;;;;;;;;2.00;2.00;;;;;23.60;100.00;99754.69;5043787;28;69203;-77
2023/09/21 00:57:11;;;;;;;;;2.00;2.00;;;;;23.57;100.00;99751.28;5056643;28;66154;-77
2023/09/21 00:59:39;;;;;;;;;2.00;2.00;;;;;23.53;100.00;99754.16;5053975;28;45585;-77
2023/09/21 01:02:04;;;;;;;;;2.67;2.00;;;;;23.53;100.00;99756.00;5055087;28;47407;-77
2023/09/21 01:04:30;;;;;;;;;3.00;1.00;;;;;23.49;100.00;99749.94;5052426;28;65668;-77
2023/09/21 01:06:55;;;;;;;;;4.33;2.00;;;;;23.44;100.00;99733.19;5051372;28;45283;-77
2023/09/21 01:09:21;;;;;;;;;2.33;2.00;;;;;23.39;100.00;99734.41;5048802;28;59086;-78
2023/09/21 01:11:46;;;;;;;;;2.00;2.00;;;;;23.34;100.00;99748.16;5049965;28;64681;-77
2023/09/21 01:14:12;;;;;;;;;2.00;2.00;;;;;23.28;100.00;99735.03;5046481;28;59971;-77
2023/09/21 01:16:37;;;;;;;;;2.33;1.67;;;;;23.22;100.00;99738.06;5049337;28;45915;-77
2023/09/21 01:19:03;;;;;;;;;2.33;2.33;;;;;23.15;100.00;99751.03;5049145;28;64101;-77
2023/09/21 01:21:37;;;;;;;;;2.00;2.00;;;;;23.11;100.00;99751.31;5048510;28;46311;-77
2023/09/21 01:24:03;;;;;;;;;1.00;1.00;;;;;23.09;100.00;99758.59;5054238;28;45477;-77
2023/09/21 01:26:29;;;;;;;;;4.67;2.00;;;;;23.06;100.00;99756.94;5050909;28;45453;-76
2023/09/21 01:28:57;;;;;;;;;2.00;2.00;;;;;23.07;100.00;99747.06;5044811;28;45327;-77
2023/09/21 01:31:22;;;;;;;;;3.00;1.00;;;;;23.06;100.00;99751.56;5042428;28;47866;-76
2023/09/21 01:33:48;;;;;;;;;1.67;1.67;;;;;23.02;100.00;99741.94;5054593;28;45430;-77
2023/09/21 01:36:15;;;;;;;;;2.00;2.00;;;;;22.97;100.00;99757.50;5045158;28;67724;-77
2023/09/21 01:38:45;;;;;;;;;2.67;2.00;;;;;22.94;100.00;99752.28;5053785;28;45468;-77
2023/09/21 01:41:15;;;;;;;;;1.33;1.33;;;;;22.90;100.00;99742.63;5055964;28;46693;-77
2023/09/21 01:43:41;;;;;;;;;2.00;2.00;;;;;22.82;100.00;99748.44;5052037;28;45470;-78
2023/09/21 01:46:06;;;;;;;;;1.00;1.00;;;;;22.75;100.00;99752.44;5052919;28;45454;-77
2023/09/21 01:48:32;;;;;;;;;3.67;1.67;;;;;22.72;100.00;99749.91;5050417;28;45675;-77
2023/09/21 01:50:57;;;;;;;;;3.67;1.33;;;;;22.65;100.00;99754.78;5050040;28;47704;-78
2023/09/21 01:53:23;;;;;;;;;5.00;2.00;;;;;22.59;100.00;99762.31;5050468;28;45453;-77
2023/09/21 01:55:50;;;;;;;;;2.00;2.00;;;;;22.54;100.00;99748.25;5055414;28;45475;-77
2023/09/21 01:58:17;;;;;;;;;2.00;2.00;;;;;22.48;100.00;99733.31;5045595;28;45628;-76
2023/09/21 02:00:46;;;;;;;;;1.67;1.67;;;;;22.39;100.00;99739.22;5053767;28;47325;-77
2023/09/21 02:03:13;;;;;;;;;2.00;2.00;;;;;22.34;100.00;99727.84;5052049;28;45280;-77
2023/09/21 02:05:39;;;;;;;;;1.00;1.00;;;;;22.26;100.00;99730.06;5042514;28;45394;-77
2023/09/21 02:08:05;;;;;;;;;1.00;1.00;;;;;22.25;100.00;99729.19;5050906;28;45460;-77
2023/09/21 02:10:34;;;;;;;;;2.00;2.00;;;;;22.21;100.00;99716.88;5038839;28;47070;-77
2023/09/21 02:13:01;;;;;;;;;2.00;2.00;;;;;22.17;100.00;99718.00;5043853;28;45875;-77
2023/09/21 02:15:27;;;;;;;;;3.00;1.67;;;;;22.17;100.00;99718.00;5056335;28;45310;-78
2023/09/21 02:17:57;;;;;;;;;2.00;2.00;;;;;22.13;100.00;99711.91;5053291;28;45371;-76
2023/09/21 02:20:23;;;;;;;;;2.00;1.00;;;;;22.12;100.00;99695.88;5056940;28;47535;-77
2023/09/21 02:22:51;;;;;;;;;1.33;1.33;;;;;22.12;100.00;99695.88;5048106;28;45167;-77
2023/09/21 02:25:18;;;;;;;;;3.00;1.00;;;;;22.13;100.00;99706.53;5045513;28;45979;-77
2023/09/21 02:27:46;;;;;;;;;4.00;2.00;;;;;22.13;100.00;99695.78;5048080;28;45365;-77
2023/09/21 02:30:13;;;;;;;;;6.00;3.33;;;;;22.10;100.00;99701.31;5046835;28;47433;-77
2023/09/21 02:32:48;;;;;;;;;4.67;2.00;;;;;22.05;100.00;99691.72;5041204;28;45381;-77
2023/09/21 02:35:15;;;;;;;;;3.00;2.00;;;;;22.08;100.00;99680.81;5040226;28;45228;-77
2023/09/21 02:37:48;;;;;;;;;3.67;3.00;;;;;22.04;100.00;99669.38;5038967;28;45341;-77
2023/09/21 02:40:17;;;;;;;;;2.33;2.33;;;;;22.07;100.00;99677.28;5037255;28;46742;-77
2023/09/21 02:42:49;;;;;;;;;4.67;3.00;;;;;22.04;100.00;99674.75;5041844;28;45356;-77
2023/09/21 02:45:15;;;;;;;;;4.00;2.00;;;;;22.03;100.00;99659.56;5047570;28;45369;-77
2023/09/21 02:47:44;;;;;;;;;2.00;2.00;;;;;22.03;100.00;99656.00;5053193;28;45442;-77
2023/09/21 02:50:25;;;;;;;;;2.33;2.33;;;;;22.01;100.00;99655.25;5054335;28;46802;-78
2023/09/21 02:53:07;;;;;;;;;3.33;3.00;;;;;22.01;100.00;99649.88;5051955;28;45326;-78
2023/09/21 02:55:33;;;;;;;;;4.67;3.00;;;;;22.02;100.00;99643.53;5048793;28;45494;-79
2023/09/21 02:58:04;;;;;;;;;3.00;3.00;;;;;22.07;100.00;99646.84;5047699;28;46634;-78
2023/09/21 03:00:35;;;;;;;;;3.00;3.00;;;;;22.07;100.00;99653.06;5053838;28;46796;-78
2023/09/21 03:03:01;;;;;;;;;4.00;2.00;;;;;22.00;100.00;99646.31;5043566;28;45353;-78
2023/09/21 03:05:27;;;;;;;;;3.67;1.00;;;;;22.04;100.00;99645.16;5045762;28;45284;-78
2023/09/21 03:07:54;;;;;;;;;2.00;2.00;;;;;22.03;100.00;99640.75;5049391;28;45529;-78
2023/09/21 03:10:20;;;;;;;;;1.00;1.00;;;;;22.10;100.00;99633.22;5041562;28;46245;-78
2023/09/21 03:12:49;;;;;;;;;4.00;1.00;;;;;22.11;100.00;99641.25;5041340;28;45410;-78
2023/09/21 03:15:18;;;;;;;;;2.33;1.67;;;;;22.10;100.00;99634.09;5038769;28;45258;-78
2023/09/21 03:17:43;;;;;;;;;3.00;2.00;;;;;22.10;100.00;99643.97;5050696;28;45648;-78
2023/09/21 03:20:12;;;;;;;;;4.00;2.67;;;;;22.07;100.00;99633.41;5054892;28;48206;-78
2023/09/21 03:22:38;;;;;;;;;2.00;2.00;;;;;22.10;100.00;99643.97;5053516;28;45516;-78
2023/09/21 03:25:11;;;;;;;;;2.00;2.00;;;;;22.11;100.00;99635.88;5052075;28;45485;-78
2023/09/21 03:27:36;;;;;;;;;1.67;1.67;;;;;22.10;100.00;99638.59;5049026;28;45326;-78
2023/09/21 03:30:05;;;;;;;;;2.33;1.00;;;;;22.07;100.00;99646.84;5044669;28;46784;-78
2023/09/21 03:32:30;;;;;;;;;2.00;2.00;;;;;22.05;100.00;99640.66;5052746;28;45511;-78
2023/09/21 03:34:55;;;;;;;;;2.00;2.00;;;;;22.03;100.00;99643.44;5045035;28;45278;-77
2023/09/21 03:37:21;;;;;;;;;1.00;1.00;;;;;22.04;100.00;99642.47;5045470;28;63120;-78
2023/09/21 03:39:46;;;;;;;;;3.00;2.00;;;;;22.02;100.00;99638.16;5046893;28;47168;-78
2023/09/21 03:42:11;;;;;;;;;1.00;1.00;;;;;22.04;100.00;99642.47;5035428;28;67454;-77
2023/09/21 03:44:37;;;;;;;;;1.00;1.00;;;;;22.02;100.00;99638.16;5048913;28;48144;-78
2023/09/21 03:47:03;;;;;;;;;1.00;1.00;;;;;22.07;100.00;99625.34;5053930;28;45226;-78
2023/09/21 03:49:29;;;;;;;;;1.67;1.67;;;;;22.05;100.00;99622.75;5052574;28;46623;-78
2023/09/21 03:51:54;;;;;;;;;0.33;0.33;;;;;22.05;100.00;99624.53;5052028;28;59322;-78
2023/09/21 03:54:20;;;;;;;;;1.00;0.00;;;;;22.06;100.00;99623.59;5053698;28;45212;-79
2023/09/21 03:56:45;;;;;;;;;2.00;1.00;;;;;22.03;100.00;99637.19;5048513;28;45572;-77
2023/09/21 03:59:11;;;;;;;;;3.00;2.00;;;;;21.97;100.00;99615.06;5050265;28;68384;-78
2023/09/21 04:01:40;;;;;;;;;1.00;1.00;;;;;21.98;100.00;99622.19;5050585;28;45333;-78
2023/09/21 04:04:18;;;;;;;;;0.00;0.00;;;;;21.98;100.00;99618.63;5054959;28;45386;-78
2023/09/21 04:06:44;;;;;;;;;2.33;1.00;;;;;21.94;100.00;99615.28;5049481;28;45482;-78
2023/09/21 04:09:09;;;;;;;;;3.33;1.00;;;;;21.98;100.00;99615.94;5045427;28;46786;-78
2023/09/21 04:11:34;;;;;;;;;3.00;1.00;;;;;21.96;100.00;99605.28;5046370;28;45389;-78
2023/09/21 04:14:01;;;;;;;;;0.00;0.00;;;;;21.98;100.00;99611.44;5045640;28;57764;-77
2023/09/21 04:16:28;;;;;;;;;4.00;1.00;;;;;22.01;100.00;99613.09;5044480;28;45540;-77
2023/09/21 04:18:53;;;;;;;;;1.00;1.00;;;;;22.01;100.00;99614.94;5053441;28;46840;-77
2023/09/21 04:21:20;;;;;;;;;1.33;1.00;;;;;22.03;100.00;99613.88;5046296;28;45432;-78
2023/09/21 04:23:45;;;;;;;;;1.00;1.00;;;;;22.02;100.00;99611.28;5057221;28;45252;-78
2023/09/21 04:26:12;;;;;;;;;3.00;1.00;;;;;21.98;100.00;99611.44;5055903;28;45365;-77
2023/09/21 04:28:37;;;;;;;;;0.00;0.00;;;;;21.97;100.00;99607.00;5052689;28;47371;-78
2023/09/21 04:31:02;;;;;;;;;1.33;1.33;;;;;21.96;100.00;99610.66;5044953;28;45426;-79
2023/09/21 04:33:28;;;;;;;;;3.00;1.00;;;;;21.94;100.00;99596.44;5049730;28;54745;-79
2023/09/21 04:35:53;;;;;;;;;1.00;1.00;;;;;21.97;100.00;99596.25;5043074;28;45535;-78
2023/09/21 04:38:18;;;;;;;;;4.33;1.00;;;;;21.98;100.00;99600.69;5042784;28;68588;-78
2023/09/21 04:40:46;;;;;;;;;2.67;1.00;;;;;21.94;100.00;99601.84;5043462;28;45381;-77
2023/09/21 04:43:13;;;;;;;;;2.33;1.33;;;;;21.95;100.00;99597.31;5043697;28;45339;-78
2023/09/21 04:45:38;;;;;;;;;0.00;0.00;;;;;21.94;100.00;99591.06;5045845;28;45358;-77
2023/09/21 04:48:04;;;;;;;;;2.00;1.00;;;;;21.89;100.00;99576.13;5056796;28;46245;-77
2023/09/21 04:50:29;;;;;;;;;1.00;1.00;;;;;21.92;100.00;99571.47;5057797;28;45563;-77
2023/09/21 04:52:55;;;;;;;;;2.00;1.00;;;;;21.89;100.00;99566.28;5053630;28;63237;-76
2023/09/21 04:55:21;;;;;;;;;1.33;1.33;;;;;21.88;100.00;99569.88;5050864;28;45642;-77
2023/09/21 04:57:46;;;;;;;;;2.00;1.00;;;;;21.86;100.00;99553.00;5049525;28;47471;-76
2023/09/21 05:00:13;;;;;;;;;1.00;1.00;;;;;21.83;100.00;99552.28;5048707;28;45454;-76
2023/09/21 05:02:39;;;;;;;;;3.00;1.67;;;;;21.84;100.00;99551.34;5062845;28;45494;-76
2023/09/21 05:05:05;;;;;;;;;1.00;1.00;;;;;21.80;100.00;99545.28;5054107;28;45520;-76
2023/09/21 05:07:30;;;;;;;;;3.67;2.00;;;;;21.80;100.00;99542.59;5057639;27;47468;-76
2023/09/21 05:09:56;;;;;;;;;2.33;1.00;;;;;21.84;100.00;99551.34;5058602;28;45169;-76
2023/09/21 05:12:21;;;;;;;;;1.33;1.33;;;;;21.81;100.00;99541.63;5057209;28;63914;-76
2023/09/21 05:14:48;;;;;;;;;1.67;1.67;;;;;21.82;100.00;99553.25;5054008;28;59700;-77
2023/09/21 05:17:16;;;;;;;;;2.00;2.00;;;;;21.78;100.00;99563.28;5062466;27;47656;-76
2023/09/21 05:19:41;;;;;;;;;5.00;1.33;;;;;21.78;100.00;99555.22;5057554;28;45335;-76
2023/09/21 05:22:08;;;;;;;;;4.00;1.00;;;;;21.83;100.00;99563.91;5057571;28;52921;-76
2023/09/21 05:24:35;;;;;;;;;2.67;2.67;;;;;21.83;100.00;99561.22;5055444;28;45508;-75
2023/09/21 05:27:01;;;;;;;;;2.00;2.00;;;;;21.84;100.00;99568.34;5055681;28;47815;-76
2023/09/21 05:29:26;;;;;;;;;2.67;2.00;;;;;21.79;100.00;99567.75;5043443;28;66646;-77
2023/09/21 05:31:52;;;;;;;;;2.00;2.00;;;;;21.80;100.00;99566.78;5046621;28;45222;-77
2023/09/21 05:34:17;;;;;;;;;4.00;3.00;;;;;21.84;100.00;99568.34;5054553;28;45424;-76
2023/09/21 05:36:47;;;;;;;;;2.00;2.00;;;;;21.82;100.00;99570.22;5044490;28;46244;-79
2023/09/21 05:39:16;;;;;;;;;4.33;2.00;;;;;21.84;100.00;99572.81;5044590;28;45367;-79
2023/09/21 05:41:48;;;;;;;;;2.00;2.00;;;;;21.79;100.00;99573.13;5044507;28;45339;-76
2023/09/21 05:44:14;;;;;;;;;6.00;3.00;;;;;21.81;100.00;99568.50;5049056;28;45419;-78
2023/09/21 05:46:40;;;;;;;;;2.67;2.67;;;;;21.77;100.00;99568.75;5056834;28;46545;-77
2023/09/21 05:49:09;;;;;;;;;2.00;2.00;;;;;21.78;100.00;99583.91;5046763;28;45343;-76
2023/09/21 05:51:36;;;;;;;;;2.00;2.00;;;;;21.76;100.00;99570.59;5054158;28;45453;-77
2023/09/21 05:54:03;;;;;;;;;4.00;2.00;;;;;21.76;100.00;99575.97;5057461;28;45531;-77
2023/09/21 05:56:29;;;;;;;;;4.00;2.67;;;;;21.77;100.00;99591.13;5051759;28;46585;-78
2023/09/21 05:58:54;;;;;;;;;2.33;2.33;;;;;21.79;100.00;99591.06;5047641;28;45247;-77
2023/09/21 06:01:19;;;;;;;;;5.33;3.00;;;;;21.82;100.00;99594.41;5048999;28;66232;-76
2023/09/21 06:03:45;;;;;;;;;2.00;2.00;;;;;21.87;100.00;99599.53;5057488;28;52432;-76
2023/09/21 06:06:10;;;;;;;;;5.67;2.00;;;;;21.90;100.00;99592.19;5051222;28;50411;-76
2023/09/21 06:08:38;;;;;;;;;1.33;1.33;;;;;21.87;100.00;99600.41;5054010;28;65706;-77
2023/09/21 06:11:04;;;;;;;;;2.33;2.33;;;;;21.86;100.00;99600.50;5055700;28;45516;-76
2023/09/21 06:13:31;;;;;;;;;6.00;3.67;;;;;21.85;100.00;99614.91;5050762;28;45450;-77
2023/09/21 06:15:56;;;;;;;;;1.33;1.33;;;;;21.88;100.00;99599.44;5052810;28;46894;-77
2023/09/21 06:18:23;;;;;;;;;0.00;0.00;;;;;21.93;100.00;99605.44;5055673;28;67853;-76
2023/09/21 06:20:48;;;;;;;;;2.67;2.00;;;;;21.95;100.00;99608.06;5050189;28;45489;-77
2023/09/21 06:23:17;;;;;;;;;4.67;2.00;;;;;21.93;100.00;99605.44;5054952;28;45548;-76
2023/09/21 06:25:43;;;;;;;;;5.00;3.00;;;;;21.89;100.00;99601.22;5057029;28;47242;-76
2023/09/21 06:28:08;;;;;;;;;3.67;2.00;;;;;21.83;100.00;99609.59;5048582;28;45346;-77
2023/09/21 06:30:34;;;;;;;;;3.00;2.00;;;;;21.79;100.00;99608.03;5044545;28;45185;-78
2023/09/21 06:32:59;;;;;;;;;3.00;3.00;;;;;21.75;100.00;99606.47;5041899;28;56673;-76
2023/09/21 06:35:25;;;;;;;;;0.67;0.67;;;;;21.72;100.00;99606.63;5042121;28;45394;-76
2023/09/21 06:37:54;;;;;;;;;2.00;2.00;;;;;21.67;100.00;99608.69;5039256;28;45362;-76
2023/09/21 06:40:25;;;;;;;;;1.67;1.67;;;;;21.60;100.00;99607.28;5038805;28;45327;-80
2023/09/21 06:42:51;;;;;;;;;2.33;2.33;;;;;21.56;100.00;99608.41;5055970;28;45263;-76
2023/09/21 06:45:16;;;;;;;;;3.67;2.00;;;;;21.55;100.00;99617.41;5054943;28;73965;-76
2023/09/21 06:47:42;;;;;;;;;2.00;2.00;;;;;21.50;100.00;99619.47;5055512;28;45358;-79
2023/09/21 06:50:10;;;;;;;;;4.67;1.67;;;;;21.48;100.00;99619.56;5052796;28;45310;-77
2023/09/21 06:52:36;;;;;;;;;3.00;3.00;;;;;21.43;100.00;99617.13;5055187;28;45552;-76
2023/09/21 06:55:05;;;;;;;;;2.00;2.00;;;;;21.43;100.00;99613.56;5047605;28;46362;-77
2023/09/21 06:57:31;;;;;;;;;2.00;2.00;;;;;21.41;100.00;99635.16;5051691;28;46788;-78
2023/09/21 06:59:57;;;;;;;;;4.00;2.00;;;;;21.39;100.00;99634.34;5046821;28;45414;-78
2023/09/21 07:02:24;;;;;;;;;2.00;2.00;;;;;21.33;100.00;99623.94;5041510;28;45426;-77
2023/09/21 07:04:50;;;;;;;;;6.33;2.00;;;;;21.31;100.00;99633.03;5045590;27;45774;-77
2023/09/21 07:07:15;;;;;;;;;1.33;1.33;;;;;21.28;100.00;99627.78;5060575;28;45277;-77
2023/09/21 07:09:41;;;;;;;;;2.33;2.33;;;;;21.25;100.00;99626.09;5059782;28;45493;-77
2023/09/21 07:12:06;;;;;;;;;4.33;2.67;;;;;21.28;100.00;99617.91;5046771;28;45206;-78
2023/09/21 07:14:34;;;;;;;;;4.00;1.67;;;;;21.27;100.00;99621.53;5043167;28;52787;-77
2023/09/21 07:16:59;;;;;;;;;4.33;1.67;;;;;21.22;100.00;99620.91;5043403;28;45462;-77
2023/09/21 07:19:25;;;;;;;;;2.67;2.67;;;;;21.21;100.00;99616.50;5049489;28;45566;-76
2023/09/21 07:21:50;;;;;;;;;2.33;2.33;;;;;21.20;100.00;99617.44;5052133;28;45651;-77
2023/09/21 07:24:16;;;;;;;;;3.00;2.00;;;;;21.17;100.00;99620.28;5053573;28;70474;-77
2023/09/21 07:26:45;;;;;;;;;2.33;2.33;;;;;21.10;100.00;99614.38;5051798;28;45457;-78
2023/09/21 07:29:11;;;;;;;;;1.33;1.33;;;;;21.09;100.00;99611.75;5055117;28;45153;-75
2023/09/21 07:31:36;;;;;;;;;6.33;2.67;;;;;21.11;100.00;99609.88;5049225;27;45619;-76
2023/09/21 07:34:02;;;;;;;;;4.00;2.67;;;;;21.11;100.00;99607.19;5050597;28;65795;-75
2023/09/21 07:36:28;;;;;;;;;4.67;2.67;;;;;21.12;100.00;99604.41;5050400;28;67229;-77
2023/09/21 07:38:55;;;;;;;;;3.67;2.67;;;;;21.08;100.00;99605.50;5047850;28;64914;-73
2023/09/21 07:41:20;;;;;;;;;1.67;1.67;;;;;21.13;100.00;99607.94;5051044;28;45639;-75
2023/09/21 07:43:46;;;;;;;;;1.67;1.67;;;;;21.17;100.00;99606.84;5046229;28;66333;-76
2023/09/21 07:46:12;;;;;;;;;3.00;3.00;;;;;21.18;100.00;99598.72;5057432;27;45504;-75
2023/09/21 07:48:37;;;;;;;;;2.67;2.33;;;;;21.19;100.00;99583.47;5057629;28;59013;-76
2023/09/21 07:51:07;;;;;;;;;1.67;1.67;;;;;21.17;100.00;99588.94;5056652;28;63211;-75
2023/09/21 07:53:33;;;;;;;;;1.67;1.67;;;;;21.18;100.00;99585.28;5055945;28;46745;-78
2023/09/21 07:56:01;;;;;;;;;1.33;1.33;;;;;21.16;100.00;99580.97;5052601;28;45677;-78
2023/09/21 07:58:27;;;;;;;;;3.00;1.67;;;;;21.17;100.00;99571.97;5057965;28;45406;-78
2023/09/21 08:00:54;;;;;;;;;3.00;2.00;;;;;21.20;100.00;99579.88;5063166;28;45555;-78
2023/09/21 08:03:21;;;;;;;;;5.33;1.33;;;;;21.22;100.00;99585.16;5058113;28;46566;-77
2023/09/21 08:05:47;;;;;;;;;3.33;1.33;;;;;21.21;100.00;99580.72;5057789;28;45856;-78
2023/09/21 08:08:15;;;;;;;;;1.33;1.33;;;;;21.25;100.00;99575.09;5058974;28;45241;-77
2023/09/21 08:10:41;;;;;;;;;3.00;1.33;;;;;21.28;100.00;99572.25;5048438;28;45533;-78
2023/09/21 08:15:41;;;;;;;;;1.00;0.67;;;;;21.28;100.00;99564.19;5057374;28;45535;-77
2023/09/21 08:18:07;;;;;;;;;1.67;1.67;;;;;21.27;100.00;99564.28;5058715;28;45397;-78
2023/09/21 08:20:32;;;;;;;;;0.67;0.67;;;;;21.29;100.00;99567.75;5056688;28;45652;-77
2023/09/21 08:22:58;;;;;;;;;2.00;1.67;;;;;21.26;100.00;99563.44;5058017;28;46519;-78
2023/09/21 08:25:23;;;;;;;;;1.33;1.33;;;;;21.28;100.00;99560.66;5057523;28;45393;-77
2023/09/21 08:27:49;;;;;;;;;4.00;1.67;;;;;21.28;100.00;99558.81;5058223;28;65697;-78
2023/09/21 08:30:15;;;;;;;;;1.33;1.00;;;;;21.26;100.00;99555.38;5055613;28;55743;-77
2023/09/21 08:32:41;;;;;;;;;4.00;1.33;;;;;21.28;100.00;99552.59;5059246;28;47583;-77
2023/09/21 08:35:07;;;;;;;;;2.67;1.00;;;;;21.31;100.00;99561.41;5058818;28;45332;-76
2023/09/21 08:37:33;;;;;;;;;1.67;1.67;;;;;21.31;100.00;99572.13;5058986;28;46231;-78
2023/09/21 08:39:58;;;;;;;;;1.00;1.00;;;;;21.31;100.00;99560.53;5058708;28;46806;-78
2023/09/21 08:42:25;;;;;;;;;3.33;2.33;;;;;21.28;100.00;99561.50;5057410;28;46311;-77
2023/09/21 08:44:50;;;;;;;;;4.00;2.67;;;;;21.29;100.00;99565.94;5056105;28;45638;-78
2023/09/21 08:47:16;;;;;;;;;1.33;1.33;;;;;21.32;100.00;99555.06;5089894;27;45785;-78
2023/09/21 08:49:45;;;;;;;;;2.00;2.00;;;;;21.33;100.00;99555.94;5056554;28;45604;-78
2023/09/21 08:52:12;;;;;;;;;4.33;1.33;;;;;21.35;100.00;99559.41;5057083;28;46789;-78
2023/09/21 08:54:42;;;;;;;;;1.00;0.67;;;;;21.35;100.00;99562.94;5056630;28;45394;-79
2023/09/21 08:57:09;;;;;;;;;3.67;1.67;;;;;21.44;100.00;99556.22;5054426;28;45324;-78
2023/09/21 08:59:39;;;;;;;;;2.00;2.00;;;;;21.49;100.00;99562.22;5057768;28;45630;-78
2023/09/21 09:02:09;;;;;;;;;2.33;1.33;;;;;21.55;100.00;99555.63;5055952;28;46656;-78
2023/09/21 09:04:36;;;;;;;;;2.00;2.00;;;;;21.61;100.00;99552.63;5056193;28;46641;-78
2023/09/21 09:07:02;;;;;;;;;1.67;1.67;;;;;21.63;100.00;99543.53;5057479;28;45622;-77
2023/09/21 09:09:27;;;;;;;;;2.00;2.00;;;;;21.67;100.00;99552.28;5058700;28;45386;-78
2023/09/21 09:11:52;;;;;;;;;2.00;2.00;;;;;21.65;100.00;99546.13;5057274;28;69038;-79
2023/09/21 09:14:21;;;;;;;;;2.33;2.00;;;;;21.67;100.00;99539.69;5056854;28;63319;-78
2023/09/21 09:16:47;;;;;;;;;6.00;1.67;;;;;21.68;100.00;99541.47;5058336;28;45426;-78
2023/09/21 09:19:13;;;;;;;;;2.67;2.67;;;;;21.67;100.00;99539.69;5058286;28;45443;-78
2023/09/21 09:21:40;;;;;;;;;3.00;3.00;;;;;21.65;100.00;99524.63;5057875;28;47612;-78
2023/09/21 09:24:08;;;;;;;;;4.00;2.67;;;;;21.61;100.00;99517.69;5058149;28;45381;-78
2023/09/21 09:26:33;;;;;;;;;5.33;3.00;;;;;21.58;100.00;99523.25;5057721;28;45391;-78
2023/09/21 09:29:09;;;;;;;;;3.00;2.00;;;;;21.56;100.00;99525.13;5058730;28;45185;-78
2023/09/21 09:31:37;;;;;;;;;4.00;3.00;;;;;21.52;100.00;99532.50;5056878;28;47591;-78
2023/09/21 09:34:04;;;;;;;;;4.00;2.33;;;;;21.47;100.00;99558.75;5057983;28;45371;-78
2023/09/21 09:36:32;;;;;;;;;1.00;1.00;;;;;21.31;100.00;99590.94;5058252;28;45482;-79
2023/09/21 09:38:58;;;;;;;;;0.33;0.33;;;;;20.79;100.00;99609.69;5058302;28;45469;-79
2023/09/21 09:41:24;;;;;;;;;2.33;1.00;;;;;20.24;100.00;99630.25;5057405;28;47891;-80
2023/09/21 09:43:51;;;;;;;;;1.00;0.00;;;;;19.72;100.00;99612.16;5090570;27;45325;-81
2023/09/21 09:46:19;;;;;;;;;1.33;0.00;;;;;19.36;100.00;99620.00;5058044;28;45374;-81
2023/09/21 09:48:46;;;;;;;;;2.00;2.00;;;;;19.14;100.00;99628.13;5050836;28;45505;-81
2023/09/21 09:51:13;;;;;;;;;1.67;0.67;;;;;18.96;100.00;99626.22;5057000;28;70772;-81
2023/09/21 09:53:40;;;;;;;;;0.67;0.00;;;;;18.84;100.00;99617.78;5036064;28;45693;-81
2023/09/21 09:56:10;;;;;;;;;0.00;0.00;;;;;18.83;100.00;99613.38;5056351;28;46232;-82
2023/09/21 09:58:41;;;;;;;;;0.00;0.00;;;;;18.77;100.00;99613.63;5082008;27;45300;-82
2023/09/21 10:01:09;;;;;;;;;0.00;0.00;;;;;18.80;100.00;99613.53;5057102;28;47012;-82
2023/09/21 10:03:35;;;;;;;;;0.00;0.00;;;;;18.89;100.00;99617.59;5056244;28;45500;-83
2023/09/21 10:06:00;;;;;;;;;0.00;0.00;;;;;18.92;100.00;99619.28;5061672;28;45519;-82
2023/09/21 10:08:26;;;;;;;;;0.00;0.00;;;;;18.99;100.00;99618.94;5053161;28;62114;-81
2023/09/21 10:10:55;;;;;;;;;0.00;0.00;;;;;19.05;100.00;99609.78;5055872;28;45611;-81
2023/09/21 10:13:25;;;;;;;;;0.00;0.00;;;;;19.05;100.00;99615.13;5037187;28;46311;-81
2023/09/21 10:16:00;;;;;;;;;0.00;0.00;;;;;19.07;100.00;99618.63;5061941;28;45509;-81
2023/09/21 10:18:35;;;;;;;;;0.00;0.00;;;;;19.10;100.00;99616.66;5055310;28;45559;-76
2023/09/21 10:21:29;;;;;;;;;1.00;0.00;;;;;19.07;100.00;99614.16;5055438;28;46497;-77
2023/09/21 10:24:06;;;;;;;;;0.00;0.00;;;;;19.05;100.00;99613.31;5050462;28;45429;-78
2023/09/21 10:26:38;;;;;;;;;0.00;0.00;;;;;19.00;100.00;99635.84;5054219;28;45379;-78
2023/09/21 10:29:05;;;;;;;;;1.00;1.00;;;;;18.98;100.00;99629.72;5055380;28;45461;-77
2023/09/21 10:31:33;;;;;;;;;2.00;0.00;;;;;18.99;100.00;99626.97;5053943;28;45887;-76
2023/09/21 10:33:58;;;;;;;;;1.00;1.00;;;;;19.06;100.00;99630.25;5054741;28;45384;-76
2023/09/21 10:36:28;;;;;;;;;1.00;1.00;;;;;19.12;100.00;99638.00;5055840;28;45496;-77
2023/09/21 10:39:06;;;;;;;;;0.67;0.33;;;;;19.17;100.00;99638.66;5055169;28;45314;-78
2023/09/21 10:41:32;;;;;;;;;2.33;1.33;;;;;19.21;100.00;99645.63;5055039;28;46518;-77
2023/09/21 10:44:00;;;;;;;;;1.00;1.00;;;;;19.21;100.00;99651.00;5055581;28;45552;-78
2023/09/21 10:46:26;;;;;;;;;3.00;1.33;;;;;19.17;100.00;99656.53;5087120;27;45466;-77
2023/09/21 10:49:13;;;;;;;;;5.33;2.00;;;;;19.08;100.00;99656.00;5055926;28;45221;-79
2023/09/21 10:51:41;;;;;;;;;4.67;4.00;;;;;19.05;100.00;99672.19;5053139;28;46495;-79
2023/09/21 10:54:07;;;;;;;;;5.00;4.00;;;;;19.01;100.00;99670.56;5055454;28;45489;-78
2023/09/21 10:56:36;;;;;;;;;5.00;5.00;;;;;18.99;100.00;99676.94;5055205;28;45379;-78
2023/09/21 10:59:02;;;;;;;;;5.00;5.00;;;;;19.01;100.00;99689.28;5054528;28;45406;-78
2023/09/21 11:01:27;;;;;;;;;6.00;6.00;;;;;18.94;100.00;99679.78;5055095;28;45664;-83
2023/09/21 11:03:53;;;;;;;;;7.33;6.00;;;;;18.92;100.00;99684.34;5053606;28;58312;-76
2023/09/21 11:06:19;;;;;;;;;8.67;5.67;;;;;18.96;100.00;99653.88;5052437;28;45484;-76
2023/09/21 11:08:46;;;;;;;;;6.00;5.00;;;;;19.00;100.00;99657.25;5053658;28;45493;-78
2023/09/21 11:11:12;;;;;;;;;5.33;5.33;;;;;19.00;100.00;99631.38;5055087;28;46578;-77
2023/09/21 11:13:41;;;;;;;;;5.00;5.00;;;;;19.02;100.00;99625.97;5054833;28;45398;-75
2023/09/21 11:16:09;;;;;;;;;4.00;4.00;;;;;19.04;100.00;99622.28;5054938;28;46739;-77
2023/09/21 11:18:34;;;;;;;;;8.00;5.00;;;;;19.04;100.00;99624.97;5053594;28;45337;-77
2023/09/21 11:20:59;;;;;;;;;2.67;2.00;;;;;19.01;100.00;99637.59;5087347;27;45772;-77
2023/09/21 11:23:25;;;;;;;;;8.00;2.67;;;;;18.88;100.00;99637.25;5086695;27;66238;-77
2023/09/21 11:25:50;;;;;;;;;5.00;3.00;;;;;18.78;100.00;99626.06;5055313;28;45875;-76